sensor_id;sensor_type;location;lat;lon;timestamp;temperature;humidity
19017;DHT22;9641;51.494;6.670;2023-05-10T00:00:41;13.40;99.90
19017;DHT22;9641;51.494;6.670;2023-05-10T00:03:09;13.30;99.90
19017;DHT22;9641;51.494;6.670;2023-05-10T00:05:39;13.10;99.90
19017;DHT22;9641;51.494;6.670;2023-05-10T00:08:06;13.10;99.90
19017;DHT22;9641;51.494;6.670;2023-05-10T00:10:33;13.10;99.90
19017;DHT22;9641;51.494;6.670;2023-05-10T00:12:59;13.10;99.90
19017;DHT22;9641;51.494;6.670;2023-05-10T00:15:28;13.00;99.90
19017;DHT22;9641;51.494;6.670;2023-05-10T00:17:56;13.10;99.90
19017;DHT22;9641;51.494;6.670;2023-05-10T00:20:23;13.00;99.90
19017;DHT22;9641;51.494;6.670;2023-05-10T00:22:49;13.00;99.90
19017;DHT22;9641;51.494;6.670;2023-05-10T00:25:16;13.10;99.90
19017;DHT22;9641;51.494;6.670;2023-05-10T00:27:43;13.00;99.90
19017;DHT22;9641;51.494;6.670;2023-05-10T00:30:10;12.90;99.90
19017;DHT22;9641;51.494;6.670;2023-05-10T00:32:38;13.00;99.90
19017;DHT22;9641;51.494;6.670;2023-05-10T00:35:06;12.90;99.90
19017;DHT22;9641;51.494;6.670;2023-05-10T00:37:33;13.00;99.90
19017;DHT22;9641;51.494;6.670;2023-05-10T00:40:00;13.00;99.90
19017;DHT22;9641;51.494;6.670;2023-05-10T00:42:26;12.90;99.90
19017;DHT22;9641;51.494;6.670;2023-05-10T00:44:54;12.90;99.90
19017;DHT22;9641;51.494;6.670;2023-05-10T00:47:22;12.90;99.90
19017;DHT22;9641;51.494;6.670;2023-05-10T00:49:50;13.00;99.90
19017;DHT22;9641;51.494;6.670;2023-05-10T00:52:17;13.00;99.90
19017;DHT22;9641;51.494;6.670;2023-05-10T00:54:44;13.10;99.90
19017;DHT22;9641;51.494;6.670;2023-05-10T00:57:11;13.00;99.90
19017;DHT22;9641;51.494;6.670;2023-05-10T00:59:38;13.00;99.90
19017;DHT22;9641;51.494;6.670;2023-05-10T01:02:05;13.00;99.90
19017;DHT22;9641;51.494;6.670;2023-05-10T01:04:33;13.10;99.90
19017;DHT22;9641;51.494;6.670;2023-05-10T01:07:01;13.00;99.90
19017;DHT22;9641;51.494;6.670;2023-05-10T01:09:28;13.00;99.90
19017;DHT22;9641;51.494;6.670;2023-05-10T01:11:55;13.00;99.90
19017;DHT22;9641;51.494;6.670;2023-05-10T01:14:23;13.00;99.90
19017;DHT22;9641;51.494;6.670;2023-05-10T01:16:52;13.00;99.90
19017;DHT22;9641;51.494;6.670;2023-05-10T01:19:23;12.90;99.90
19017;DHT22;9641;51.494;6.670;2023-05-10T01:21:57;12.90;99.90
19017;DHT22;9641;51.494;6.670;2023-05-10T01:25:02;12.90;99.90
19017;DHT22;9641;51.494;6.670;2023-05-10T01:27:51;12.90;99.90
19017;DHT22;9641;51.494;6.670;2023-05-10T01:30:52;12.90;99.90
19017;DHT22;9641;51.494;6.670;2023-05-10T01:33:27;12.80;99.90
19017;DHT22;9641;51.494;6.670;2023-05-10T01:36:03;12.80;99.90
19017;DHT22;9641;51.494;6.670;2023-05-10T01:38:38;12.80;99.90
19017;DHT22;9641;51.494;6.670;2023-05-10T01:41:13;12.80;99.90
19017;DHT22;9641;51.494;6.670;2023-05-10T01:43:46;12.80;99.90
19017;DHT22;9641;51.494;6.670;2023-05-10T01:46:19;12.80;99.90
19017;DHT22;9641;51.494;6.670;2023-05-10T01:48:51;12.70;99.90
19017;DHT22;9641;51.494;6.670;2023-05-10T01:51:23;12.90;99.90
19017;DHT22;9641;51.494;6.670;2023-05-10T01:53:57;12.80;99.90
19017;DHT22;9641;51.494;6.670;2023-05-10T01:56:26;12.80;99.90
19017;DHT22;9641;51.494;6.670;2023-05-10T01:58:55;12.90;99.90
19017;DHT22;9641;51.494;6.670;2023-05-10T02:01:24;12.90;99.90
19017;DHT22;9641;51.494;6.670;2023-05-10T02:03:54;13.00;99.90
19017;DHT22;9641;51.494;6.670;2023-05-10T02:06:24;13.00;99.90
19017;DHT22;9641;51.494;6.670;2023-05-10T02:08:53;13.00;99.90
19017;DHT22;9641;51.494;6.670;2023-05-10T02:11:20;13.00;99.90
19017;DHT22;9641;51.494;6.670;2023-05-10T02:13:49;12.90;99.90
19017;DHT22;9641;51.494;6.670;2023-05-10T02:16:18;13.00;99.90
19017;DHT22;9641;51.494;6.670;2023-05-10T02:18:49;12.90;99.90
19017;DHT22;9641;51.494;6.670;2023-05-10T02:21:19;13.00;99.90
19017;DHT22;9641;51.494;6.670;2023-05-10T02:23:48;13.00;99.90
19017;DHT22;9641;51.494;6.670;2023-05-10T02:26:17;13.00;99.90
19017;DHT22;9641;51.494;6.670;2023-05-10T02:28:44;13.00;99.90
19017;DHT22;9641;51.494;6.670;2023-05-10T02:31:12;13.00;99.90
19017;DHT22;9641;51.494;6.670;2023-05-10T02:33:40;13.00;99.90
19017;DHT22;9641;51.494;6.670;2023-05-10T02:36:08;13.00;99.90
19017;DHT22;9641;51.494;6.670;2023-05-10T02:38:37;13.00;99.90
19017;DHT22;9641;51.494;6.670;2023-05-10T02:41:05;13.00;99.90
19017;DHT22;9641;51.494;6.670;2023-05-10T02:43:35;13.00;99.90
19017;DHT22;9641;51.494;6.670;2023-05-10T02:46:02;13.00;99.90
19017;DHT22;9641;51.494;6.670;2023-05-10T02:48:30;13.00;99.90
19017;DHT22;9641;51.494;6.670;2023-05-10T02:51:06;13.10;99.90
19017;DHT22;9641;51.494;6.670;2023-05-10T02:53:38;13.10;99.90
19017;DHT22;9641;51.494;6.670;2023-05-10T02:56:11;13.10;99.90
19017;DHT22;9641;51.494;6.670;2023-05-10T02:58:39;13.10;99.90
19017;DHT22;9641;51.494;6.670;2023-05-10T03:01:06;13.00;99.90
19017;DHT22;9641;51.494;6.670;2023-05-10T03:03:34;13.10;99.90
19017;DHT22;9641;51.494;6.670;2023-05-10T03:06:01;13.10;99.90
19017;DHT22;9641;51.494;6.670;2023-05-10T03:08:28;13.00;99.90
19017;DHT22;9641;51.494;6.670;2023-05-10T03:11:17;13.00;99.90
19017;DHT22;9641;51.494;6.670;2023-05-10T03:13:54;13.00;99.90
19017;DHT22;9641;51.494;6.670;2023-05-10T03:16:27;13.10;99.90
19017;DHT22;9641;51.494;6.670;2023-05-10T03:19:01;13.10;99.90
19017;DHT22;9641;51.494;6.670;2023-05-10T03:21:29;13.00;99.90
19017;DHT22;9641;51.494;6.670;2023-05-10T03:23:59;13.10;99.90
19017;DHT22;9641;51.494;6.670;2023-05-10T03:26:33;13.10;99.90
19017;DHT22;9641;51.494;6.670;2023-05-10T03:29:09;13.10;99.90
19017;DHT22;9641;51.494;6.670;2023-05-10T03:31:37;13.10;99.90
19017;DHT22;9641;51.494;6.670;2023-05-10T03:34:05;13.10;99.90
19017;DHT22;9641;51.494;6.670;2023-05-10T03:36:32;13.10;99.90
19017;DHT22;9641;51.494;6.670;2023-05-10T03:39:00;13.20;99.90
19017;DHT22;9641;51.494;6.670;2023-05-10T03:41:27;13.20;99.90
19017;DHT22;9641;51.494;6.670;2023-05-10T03:43:55;13.20;99.90
19017;DHT22;9641;51.494;6.670;2023-05-10T03:46:22;13.20;99.90
19017;DHT22;9641;51.494;6.670;2023-05-10T03:48:49;13.10;99.90
19017;DHT22;9641;51.494;6.670;2023-05-10T03:51:16;13.10;99.90
19017;DHT22;9641;51.494;6.670;2023-05-10T03:53:42;13.10;99.90
19017;DHT22;9641;51.494;6.670;2023-05-10T03:56:09;13.10;99.90
19017;DHT22;9641;51.494;6.670;2023-05-10T03:58:36;13.00;99.90
19017;DHT22;9641;51.494;6.670;2023-05-10T04:01:04;13.10;99.90
19017;DHT22;9641;51.494;6.670;2023-05-10T04:03:31;13.10;99.90
19017;DHT22;9641;51.494;6.670;2023-05-10T04:05:59;13.10;99.90
19017;DHT22;9641;51.494;6.670;2023-05-10T04:08:27;13.00;99.90
19017;DHT22;9641;51.494;6.670;2023-05-10T04:10:54;13.10;99.90
19017;DHT22;9641;51.494;6.670;2023-05-10T04:13:21;13.10;99.90
19017;DHT22;9641;51.494;6.670;2023-05-10T04:15:48;13.10;99.90
19017;DHT22;9641;51.494;6.670;2023-05-10T04:18:16;13.10;99.90
19017;DHT22;9641;51.494;6.670;2023-05-10T04:20:43;13.20;99.90
19017;DHT22;9641;51.494;6.670;2023-05-10T04:23:09;13.20;99.90
19017;DHT22;9641;51.494;6.670;2023-05-10T04:25:36;13.20;99.90
19017;DHT22;9641;51.494;6.670;2023-05-10T04:28:03;13.20;99.90
19017;DHT22;9641;51.494;6.670;2023-05-10T04:30:30;13.20;99.90
19017;DHT22;9641;51.494;6.670;2023-05-10T04:32:57;13.20;99.90
19017;DHT22;9641;51.494;6.670;2023-05-10T04:35:26;13.30;99.90
19017;DHT22;9641;51.494;6.670;2023-05-10T04:37:53;13.30;99.90
19017;DHT22;9641;51.494;6.670;2023-05-10T04:40:20;13.20;99.90
19017;DHT22;9641;51.494;6.670;2023-05-10T04:42:47;13.20;99.90
19017;DHT22;9641;51.494;6.670;2023-05-10T04:45:14;13.20;99.90
19017;DHT22;9641;51.494;6.670;2023-05-10T04:47:41;13.30;99.90
19017;DHT22;9641;51.494;6.670;2023-05-10T04:50:08;13.20;99.90
19017;DHT22;9641;51.494;6.670;2023-05-10T04:52:36;13.30;99.90
19017;DHT22;9641;51.494;6.670;2023-05-10T04:55:04;13.30;99.90
19017;DHT22;9641;51.494;6.670;2023-05-10T04:57:32;13.30;99.90
19017;DHT22;9641;51.494;6.670;2023-05-10T05:00:00;13.40;99.90
19017;DHT22;9641;51.494;6.670;2023-05-10T05:02:27;13.30;99.90
19017;DHT22;9641;51.494;6.670;2023-05-10T05:04:55;13.30;99.90
19017;DHT22;9641;51.494;6.670;2023-05-10T05:07:23;13.40;99.90
19017;DHT22;9641;51.494;6.670;2023-05-10T05:09:52;13.40;99.90
19017;DHT22;9641;51.494;6.670;2023-05-10T05:12:19;13.40;99.90
19017;DHT22;9641;51.494;6.670;2023-05-10T05:14:45;13.40;99.90
19017;DHT22;9641;51.494;6.670;2023-05-10T05:17:12;13.40;99.90
19017;DHT22;9641;51.494;6.670;2023-05-10T05:19:39;13.40;99.90
19017;DHT22;9641;51.494;6.670;2023-05-10T05:22:07;13.40;99.90
19017;DHT22;9641;51.494;6.670;2023-05-10T05:24:35;13.40;99.90
19017;DHT22;9641;51.494;6.670;2023-05-10T05:27:05;13.40;99.90
19017;DHT22;9641;51.494;6.670;2023-05-10T05:29:32;13.40;99.90
19017;DHT22;9641;51.494;6.670;2023-05-10T05:31:59;13.40;99.90
19017;DHT22;9641;51.494;6.670;2023-05-10T05:34:26;13.30;99.90
19017;DHT22;9641;51.494;6.670;2023-05-10T05:36:56;13.30;99.90
19017;DHT22;9641;51.494;6.670;2023-05-10T05:39:22;13.40;99.90
19017;DHT22;9641;51.494;6.670;2023-05-10T05:41:49;13.40;99.90
19017;DHT22;9641;51.494;6.670;2023-05-10T05:44:18;13.40;99.90
19017;DHT22;9641;51.494;6.670;2023-05-10T05:46:44;13.40;99.90
19017;DHT22;9641;51.494;6.670;2023-05-10T05:49:11;13.40;99.90
19017;DHT22;9641;51.494;6.670;2023-05-10T05:51:38;13.50;99.90
19017;DHT22;9641;51.494;6.670;2023-05-10T05:54:05;13.50;99.90
19017;DHT22;9641;51.494;6.670;2023-05-10T05:56:38;13.60;99.90
19017;DHT22;9641;51.494;6.670;2023-05-10T05:59:04;13.60;99.90
19017;DHT22;9641;51.494;6.670;2023-05-10T06:01:33;13.60;99.90
19017;DHT22;9641;51.494;6.670;2023-05-10T06:04:03;13.70;99.90
19017;DHT22;9641;51.494;6.670;2023-05-10T06:06:30;13.60;99.90
19017;DHT22;9641;51.494;6.670;2023-05-10T06:08:57;13.60;99.90
19017;DHT22;9641;51.494;6.670;2023-05-10T06:11:24;13.70;99.90
19017;DHT22;9641;51.494;6.670;2023-05-10T06:13:52;13.70;99.90
19017;DHT22;9641;51.494;6.670;2023-05-10T06:16:18;13.70;99.90
19017;DHT22;9641;51.494;6.670;2023-05-10T06:18:46;13.70;99.90
19017;DHT22;9641;51.494;6.670;2023-05-10T06:21:13;13.60;99.90
19017;DHT22;9641;51.494;6.670;2023-05-10T06:23:41;13.70;99.90
19017;DHT22;9641;51.494;6.670;2023-05-10T06:26:09;13.60;99.90
19017;DHT22;9641;51.494;6.670;2023-05-10T06:28:36;13.60;99.90
19017;DHT22;9641;51.494;6.670;2023-05-10T06:31:04;13.70;99.90
19017;DHT22;9641;51.494;6.670;2023-05-10T06:33:32;13.70;99.90
19017;DHT22;9641;51.494;6.670;2023-05-10T06:36:00;13.80;99.90
19017;DHT22;9641;51.494;6.670;2023-05-10T06:38:27;13.80;99.90
19017;DHT22;9641;51.494;6.670;2023-05-10T06:40:54;13.90;99.90
19017;DHT22;9641;51.494;6.670;2023-05-10T06:43:21;13.90;99.90
19017;DHT22;9641;51.494;6.670;2023-05-10T06:45:48;13.90;99.90
19017;DHT22;9641;51.494;6.670;2023-05-10T06:48:15;14.00;99.90
19017;DHT22;9641;51.494;6.670;2023-05-10T06:50:41;14.10;99.90
19017;DHT22;9641;51.494;6.670;2023-05-10T06:53:10;14.30;99.90
19017;DHT22;9641;51.494;6.670;2023-05-10T06:55:38;14.40;99.90
19017;DHT22;9641;51.494;6.670;2023-05-10T06:58:05;14.50;99.90
19017;DHT22;9641;51.494;6.670;2023-05-10T07:00:32;14.50;99.90
19017;DHT22;9641;51.494;6.670;2023-05-10T07:02:59;14.50;99.90
19017;DHT22;9641;51.494;6.670;2023-05-10T07:05:26;14.40;99.90
19017;DHT22;9641;51.494;6.670;2023-05-10T07:07:54;14.40;99.90
19017;DHT22;9641;51.494;6.670;2023-05-10T07:10:22;14.40;99.90
19017;DHT22;9641;51.494;6.670;2023-05-10T07:12:49;14.50;99.90
19017;DHT22;9641;51.494;6.670;2023-05-10T07:15:16;14.50;99.90
19017;DHT22;9641;51.494;6.670;2023-05-10T07:17:43;14.50;99.90
19017;DHT22;9641;51.494;6.670;2023-05-10T07:20:11;14.80;99.90
19017;DHT22;9641;51.494;6.670;2023-05-10T07:22:38;15.00;99.90
19017;DHT22;9641;51.494;6.670;2023-05-10T07:25:06;15.00;99.90
19017;DHT22;9641;51.494;6.670;2023-05-10T07:27:34;15.00;99.90
19017;DHT22;9641;51.494;6.670;2023-05-10T07:30:01;14.90;99.90
19017;DHT22;9641;51.494;6.670;2023-05-10T07:32:28;14.80;99.90
19017;DHT22;9641;51.494;6.670;2023-05-10T07:34:56;14.80;99.90
19017;DHT22;9641;51.494;6.670;2023-05-10T07:37:22;14.90;99.90
19017;DHT22;9641;51.494;6.670;2023-05-10T07:40:16;15.00;99.90
19017;DHT22;9641;51.494;6.670;2023-05-10T07:42:44;15.10;99.90
19017;DHT22;9641;51.494;6.670;2023-05-10T07:45:11;15.10;99.90
19017;DHT22;9641;51.494;6.670;2023-05-10T07:47:38;15.10;99.90
19017;DHT22;9641;51.494;6.670;2023-05-10T07:50:06;15.30;99.90
19017;DHT22;9641;51.494;6.670;2023-05-10T07:52:34;15.30;99.90
19017;DHT22;9641;51.494;6.670;2023-05-10T07:55:01;15.50;99.90
19017;DHT22;9641;51.494;6.670;2023-05-10T07:57:28;15.50;99.90
19017;DHT22;9641;51.494;6.670;2023-05-10T07:59:56;15.50;99.90
19017;DHT22;9641;51.494;6.670;2023-05-10T08:02:23;15.50;99.90
19017;DHT22;9641;51.494;6.670;2023-05-10T08:04:50;15.70;99.90
19017;DHT22;9641;51.494;6.670;2023-05-10T08:07:17;15.80;99.90
19017;DHT22;9641;51.494;6.670;2023-05-10T08:09:43;16.10;99.90
19017;DHT22;9641;51.494;6.670;2023-05-10T08:12:10;16.20;99.90
19017;DHT22;9641;51.494;6.670;2023-05-10T08:14:37;16.00;99.90
19017;DHT22;9641;51.494;6.670;2023-05-10T08:17:05;15.60;99.90
19017;DHT22;9641;51.494;6.670;2023-05-10T08:19:32;15.40;99.90
19017;DHT22;9641;51.494;6.670;2023-05-10T08:21:59;15.30;99.90
19017;DHT22;9641;51.494;6.670;2023-05-10T08:24:26;15.30;99.90
19017;DHT22;9641;51.494;6.670;2023-05-10T08:26:52;15.20;99.90
19017;DHT22;9641;51.494;6.670;2023-05-10T08:29:19;15.30;99.90
19017;DHT22;9641;51.494;6.670;2023-05-10T08:31:46;15.40;99.90
19017;DHT22;9641;51.494;6.670;2023-05-10T08:34:14;15.40;99.90
19017;DHT22;9641;51.494;6.670;2023-05-10T08:36:41;15.50;99.90
19017;DHT22;9641;51.494;6.670;2023-05-10T08:39:08;15.80;99.90
19017;DHT22;9641;51.494;6.670;2023-05-10T08:41:36;16.40;99.90
19017;DHT22;9641;51.494;6.670;2023-05-10T08:44:08;16.80;99.90
19017;DHT22;9641;51.494;6.670;2023-05-10T08:46:37;16.80;99.90
19017;DHT22;9641;51.494;6.670;2023-05-10T08:49:07;16.80;99.90
19017;DHT22;9641;51.494;6.670;2023-05-10T08:51:36;16.70;99.90
19017;DHT22;9641;51.494;6.670;2023-05-10T08:54:05;16.60;99.90
19017;DHT22;9641;51.494;6.670;2023-05-10T08:56:32;16.50;99.90
19017;DHT22;9641;51.494;6.670;2023-05-10T08:58:59;16.30;99.90
19017;DHT22;9641;51.494;6.670;2023-05-10T09:01:27;16.30;99.90
19017;DHT22;9641;51.494;6.670;2023-05-10T09:03:54;16.40;99.90
19017;DHT22;9641;51.494;6.670;2023-05-10T09:06:21;16.50;99.90
19017;DHT22;9641;51.494;6.670;2023-05-10T09:08:50;16.60;99.90
19017;DHT22;9641;51.494;6.670;2023-05-10T09:11:20;16.70;99.90
19017;DHT22;9641;51.494;6.670;2023-05-10T09:13:48;16.70;99.90
19017;DHT22;9641;51.494;6.670;2023-05-10T09:16:17;16.70;99.90
19017;DHT22;9641;51.494;6.670;2023-05-10T09:18:44;16.50;99.90
19017;DHT22;9641;51.494;6.670;2023-05-10T09:21:11;16.30;99.90
19017;DHT22;9641;51.494;6.670;2023-05-10T09:23:38;16.10;99.90
19017;DHT22;9641;51.494;6.670;2023-05-10T09:26:06;15.70;99.90
19017;DHT22;9641;51.494;6.670;2023-05-10T09:28:34;15.70;99.90
19017;DHT22;9641;51.494;6.670;2023-05-10T09:31:16;15.70;99.90
19017;DHT22;9641;51.494;6.670;2023-05-10T09:33:44;16.00;99.90
19017;DHT22;9641;51.494;6.670;2023-05-10T09:36:11;16.20;99.90
19017;DHT22;9641;51.494;6.670;2023-05-10T09:38:46;16.20;99.90
19017;DHT22;9641;51.494;6.670;2023-05-10T09:41:18;16.10;99.90
19017;DHT22;9641;51.494;6.670;2023-05-10T09:43:46;15.70;99.90
19017;DHT22;9641;51.494;6.670;2023-05-10T09:46:13;15.50;99.90
19017;DHT22;9641;51.494;6.670;2023-05-10T09:48:42;15.40;99.90
19017;DHT22;9641;51.494;6.670;2023-05-10T09:51:10;15.30;99.90
19017;DHT22;9641;51.494;6.670;2023-05-10T09:53:37;15.20;99.90
19017;DHT22;9641;51.494;6.670;2023-05-10T09:56:04;15.20;99.90
19017;DHT22;9641;51.494;6.670;2023-05-10T09:58:36;15.30;99.90
19017;DHT22;9641;51.494;6.670;2023-05-10T10:01:04;15.60;99.90
19017;DHT22;9641;51.494;6.670;2023-05-10T10:03:41;15.80;99.90
19017;DHT22;9641;51.494;6.670;2023-05-10T10:06:09;15.60;99.90
19017;DHT22;9641;51.494;6.670;2023-05-10T10:08:36;15.80;99.90
19017;DHT22;9641;51.494;6.670;2023-05-10T10:11:03;15.90;99.90
19017;DHT22;9641;51.494;6.670;2023-05-10T10:13:32;15.90;99.90
19017;DHT22;9641;51.494;6.670;2023-05-10T10:16:00;15.90;99.90
19017;DHT22;9641;51.494;6.670;2023-05-10T10:18:27;15.80;99.90
19017;DHT22;9641;51.494;6.670;2023-05-10T10:20:56;15.90;99.90
19017;DHT22;9641;51.494;6.670;2023-05-10T10:23:23;16.00;99.90
19017;DHT22;9641;51.494;6.670;2023-05-10T10:25:50;15.90;99.90
19017;DHT22;9641;51.494;6.670;2023-05-10T10:28:25;16.00;99.90
19017;DHT22;9641;51.494;6.670;2023-05-10T10:30:55;16.10;99.90
19017;DHT22;9641;51.494;6.670;2023-05-10T10:33:46;16.00;99.90
19017;DHT22;9641;51.494;6.670;2023-05-10T10:36:17;15.90;99.90
19017;DHT22;9641;51.494;6.670;2023-05-10T10:38:55;15.90;99.90
19017;DHT22;9641;51.494;6.670;2023-05-10T10:41:30;15.90;99.90
19017;DHT22;9641;51.494;6.670;2023-05-10T10:47:20;15.80;99.90
19017;DHT22;9641;51.494;6.670;2023-05-10T10:49:51;15.80;99.90
19017;DHT22;9641;51.494;6.670;2023-05-10T10:52:24;15.90;99.90
19017;DHT22;9641;51.494;6.670;2023-05-10T10:54:58;16.00;99.90
19017;DHT22;9641;51.494;6.670;2023-05-10T10:57:26;16.20;99.90
19017;DHT22;9641;51.494;6.670;2023-05-10T11:00:20;16.60;99.90
19017;DHT22;9641;51.494;6.670;2023-05-10T11:02:50;16.90;99.90
19017;DHT22;9641;51.494;6.670;2023-05-10T11:08:17;16.70;99.90
19017;DHT22;9641;51.494;6.670;2023-05-10T11:10:52;16.40;99.90
19017;DHT22;9641;51.494;6.670;2023-05-10T11:13:30;16.20;99.90
19017;DHT22;9641;51.494;6.670;2023-05-10T11:15:58;16.20;99.90
19017;DHT22;9641;51.494;6.670;2023-05-10T11:18:28;16.20;99.90
19017;DHT22;9641;51.494;6.670;2023-05-10T11:20:57;16.30;99.90
19017;DHT22;9641;51.494;6.670;2023-05-10T11:23:30;16.60;99.90
19017;DHT22;9641;51.494;6.670;2023-05-10T11:25:58;16.70;99.90
19017;DHT22;9641;51.494;6.670;2023-05-10T11:28:26;16.50;99.90
19017;DHT22;9641;51.494;6.670;2023-05-10T11:30:54;16.40;99.90
19017;DHT22;9641;51.494;6.670;2023-05-10T11:33:21;16.40;99.90
19017;DHT22;9641;51.494;6.670;2023-05-10T11:35:49;16.30;99.90
19017;DHT22;9641;51.494;6.670;2023-05-10T11:38:16;16.30;99.90
19017;DHT22;9641;51.494;6.670;2023-05-10T11:40:43;16.30;99.90
19017;DHT22;9641;51.494;6.670;2023-05-10T11:43:10;16.30;81.00
19017;DHT22;9641;51.494;6.670;2023-05-10T11:45:39;16.10;99.90
19017;DHT22;9641;51.494;6.670;2023-05-10T11:48:07;16.10;99.90
19017;DHT22;9641;51.494;6.670;2023-05-10T11:50:34;16.30;99.90
19017;DHT22;9641;51.494;6.670;2023-05-10T11:53:02;16.30;66.90
19017;DHT22;9641;51.494;6.670;2023-05-10T11:55:30;16.60;54.20
19017;DHT22;9641;51.494;6.670;2023-05-10T11:58:01;16.80;28.40
19017;DHT22;9641;51.494;6.670;2023-05-10T12:00:28;17.00;1.00
19017;DHT22;9641;51.494;6.670;2023-05-10T12:02:55;16.80;1.00
19017;DHT22;9641;51.494;6.670;2023-05-10T12:05:23;16.80;19.40
19017;DHT22;9641;51.494;6.670;2023-05-10T12:07:50;16.90;1.00
19017;DHT22;9641;51.494;6.670;2023-05-10T12:10:25;16.80;1.00
19017;DHT22;9641;51.494;6.670;2023-05-10T12:13:03;16.80;1.00
19017;DHT22;9641;51.494;6.670;2023-05-10T12:15:30;17.20;1.00
19017;DHT22;9641;51.494;6.670;2023-05-10T12:17:57;17.30;1.00
19017;DHT22;9641;51.494;6.670;2023-05-10T12:20:27;17.20;1.00
19017;DHT22;9641;51.494;6.670;2023-05-10T12:22:55;17.70;1.00
19017;DHT22;9641;51.494;6.670;2023-05-10T12:25:30;18.10;1.00
19017;DHT22;9641;51.494;6.670;2023-05-10T12:27:59;18.30;99.90
19017;DHT22;9641;51.494;6.670;2023-05-10T12:30:31;18.40;1.00
19017;DHT22;9641;51.494;6.670;2023-05-10T12:33:00;18.50;1.00
19017;DHT22;9641;51.494;6.670;2023-05-10T12:35:30;18.80;99.90
19017;DHT22;9641;51.494;6.670;2023-05-10T12:37:57;19.30;99.90
19017;DHT22;9641;51.494;6.670;2023-05-10T12:40:24;19.80;1.00
19017;DHT22;9641;51.494;6.670;2023-05-10T12:43:00;20.50;1.00
19017;DHT22;9641;51.494;6.670;2023-05-10T12:45:27;20.80;99.90
19017;DHT22;9641;51.494;6.670;2023-05-10T12:47:55;21.60;99.90
19017;DHT22;9641;51.494;6.670;2023-05-10T12:50:22;22.40;1.00
19017;DHT22;9641;51.494;6.670;2023-05-10T12:52:50;22.30;1.00
19017;DHT22;9641;51.494;6.670;2023-05-10T12:55:17;22.50;1.00
19017;DHT22;9641;51.494;6.670;2023-05-10T12:57:44;22.00;1.00
19017;DHT22;9641;51.494;6.670;2023-05-10T13:00:13;21.80;1.00
19017;DHT22;9641;51.494;6.670;2023-05-10T13:02:41;22.40;1.00
19017;DHT22;9641;51.494;6.670;2023-05-10T13:05:08;23.70;1.00
19017;DHT22;9641;51.494;6.670;2023-05-10T13:07:35;24.30;1.00
19017;DHT22;9641;51.494;6.670;2023-05-10T13:10:03;23.80;1.00
19017;DHT22;9641;51.494;6.670;2023-05-10T13:12:30;24.10;1.00
19017;DHT22;9641;51.494;6.670;2023-05-10T13:14:57;24.50;1.00
19017;DHT22;9641;51.494;6.670;2023-05-10T13:17:25;23.70;1.00
19017;DHT22;9641;51.494;6.670;2023-05-10T13:19:52;23.20;1.00
19017;DHT22;9641;51.494;6.670;2023-05-10T13:22:19;22.80;1.00
19017;DHT22;9641;51.494;6.670;2023-05-10T13:24:46;22.40;1.00
19017;DHT22;9641;51.494;6.670;2023-05-10T13:27:13;21.40;1.00
19017;DHT22;9641;51.494;6.670;2023-05-10T13:29:40;21.20;1.00
19017;DHT22;9641;51.494;6.670;2023-05-10T13:32:07;21.10;1.00
19017;DHT22;9641;51.494;6.670;2023-05-10T13:34:36;21.20;1.00
19017;DHT22;9641;51.494;6.670;2023-05-10T13:37:03;21.20;1.00
19017;DHT22;9641;51.494;6.670;2023-05-10T13:39:30;21.40;1.00
19017;DHT22;9641;51.494;6.670;2023-05-10T13:42:03;21.60;1.00
19017;DHT22;9641;51.494;6.670;2023-05-10T13:44:30;21.90;1.00
19017;DHT22;9641;51.494;6.670;2023-05-10T13:46:59;22.00;1.00
19017;DHT22;9641;51.494;6.670;2023-05-10T13:49:26;22.10;1.00
19017;DHT22;9641;51.494;6.670;2023-05-10T13:51:55;22.70;1.00
19017;DHT22;9641;51.494;6.670;2023-05-10T13:54:24;23.60;1.00
19017;DHT22;9641;51.494;6.670;2023-05-10T13:56:52;23.60;1.00
19017;DHT22;9641;51.494;6.670;2023-05-10T13:59:19;22.30;1.00
19017;DHT22;9641;51.494;6.670;2023-05-10T14:01:46;21.60;1.00
19017;DHT22;9641;51.494;6.670;2023-05-10T14:04:13;21.80;1.00
19017;DHT22;9641;51.494;6.670;2023-05-10T14:06:40;21.50;1.00
19017;DHT22;9641;51.494;6.670;2023-05-10T14:09:09;21.60;1.00
19017;DHT22;9641;51.494;6.670;2023-05-10T14:11:36;22.20;1.00
19017;DHT22;9641;51.494;6.670;2023-05-10T14:14:07;23.70;1.00
19017;DHT22;9641;51.494;6.670;2023-05-10T14:16:34;25.40;1.00
19017;DHT22;9641;51.494;6.670;2023-05-10T14:19:01;25.40;1.00
19017;DHT22;9641;51.494;6.670;2023-05-10T14:21:28;24.10;1.00
19017;DHT22;9641;51.494;6.670;2023-05-10T14:23:56;23.60;1.00
19017;DHT22;9641;51.494;6.670;2023-05-10T14:26:24;25.60;1.00
19017;DHT22;9641;51.494;6.670;2023-05-10T14:28:51;27.60;99.90
19017;DHT22;9641;51.494;6.670;2023-05-10T14:31:18;27.90;99.90
19017;DHT22;9641;51.494;6.670;2023-05-10T14:33:46;27.90;99.90
19017;DHT22;9641;51.494;6.670;2023-05-10T14:36:13;28.50;99.90
19017;DHT22;9641;51.494;6.670;2023-05-10T14:38:40;27.60;99.90
19017;DHT22;9641;51.494;6.670;2023-05-10T14:41:07;26.10;99.90
19017;DHT22;9641;51.494;6.670;2023-05-10T14:43:35;24.90;99.90
19017;DHT22;9641;51.494;6.670;2023-05-10T14:46:02;24.20;99.90
19017;DHT22;9641;51.494;6.670;2023-05-10T14:48:29;23.70;99.90
19017;DHT22;9641;51.494;6.670;2023-05-10T14:50:56;22.50;99.90
19017;DHT22;9641;51.494;6.670;2023-05-10T14:53:23;21.70;99.90
19017;DHT22;9641;51.494;6.670;2023-05-10T14:55:50;21.10;99.90
19017;DHT22;9641;51.494;6.670;2023-05-10T14:58:17;20.70;99.90
19017;DHT22;9641;51.494;6.670;2023-05-10T15:00:45;20.60;99.90
19017;DHT22;9641;51.494;6.670;2023-05-10T15:03:12;20.30;99.90
19017;DHT22;9641;51.494;6.670;2023-05-10T15:05:39;19.70;1.00
19017;DHT22;9641;51.494;6.670;2023-05-10T15:08:06;19.00;1.00
19017;DHT22;9641;51.494;6.670;2023-05-10T15:10:34;18.50;1.00
19017;DHT22;9641;51.494;6.670;2023-05-10T15:13:03;18.10;99.90
19017;DHT22;9641;51.494;6.670;2023-05-10T15:15:31;17.70;1.00
19017;DHT22;9641;51.494;6.670;2023-05-10T15:17:59;17.60;99.90
19017;DHT22;9641;51.494;6.670;2023-05-10T15:20:26;17.70;1.00
19017;DHT22;9641;51.494;6.670;2023-05-10T15:22:53;17.60;1.00
19017;DHT22;9641;51.494;6.670;2023-05-10T15:25:20;17.30;1.00
19017;DHT22;9641;51.494;6.670;2023-05-10T15:27:49;17.20;99.90
19017;DHT22;9641;51.494;6.670;2023-05-10T15:30:16;17.00;1.00
19017;DHT22;9641;51.494;6.670;2023-05-10T15:32:45;16.60;1.00
19017;DHT22;9641;51.494;6.670;2023-05-10T15:35:14;16.30;1.00
19017;DHT22;9641;51.494;6.670;2023-05-10T15:37:40;15.90;1.00
19017;DHT22;9641;51.494;6.670;2023-05-10T15:40:08;15.80;87.60
19017;DHT22;9641;51.494;6.670;2023-05-10T15:42:35;15.50;99.90
19017;DHT22;9641;51.494;6.670;2023-05-10T15:45:03;15.30;99.90
19017;DHT22;9641;51.494;6.670;2023-05-10T15:47:30;15.10;99.90
19017;DHT22;9641;51.494;6.670;2023-05-10T15:49:57;15.00;99.90
19017;DHT22;9641;51.494;6.670;2023-05-10T15:52:25;15.00;99.90
19017;DHT22;9641;51.494;6.670;2023-05-10T15:54:52;15.00;99.90
19017;DHT22;9641;51.494;6.670;2023-05-10T15:57:19;14.90;99.90
19017;DHT22;9641;51.494;6.670;2023-05-10T15:59:46;14.80;99.90
19017;DHT22;9641;51.494;6.670;2023-05-10T16:02:13;14.80;99.90
19017;DHT22;9641;51.494;6.670;2023-05-10T16:04:42;14.80;99.90